Air Resources Laboratory banner image
Air Resources Laboratory web site National Oceanic and Atmospheric Administration (NOAA)

ct metar


KBDL 180351Z 22010KT 8SM -TSRA FEW021CB BKN100 BKN120 OVC140 23/22 A2992 RMK
 AO2 LTG DSNT ALQDS SLP132 FRQ LTGICCCCA OHD-E TS OHD-E MOV NE P0007 T02330217
 $=
KBDR 180352Z AUTO 26004KT 10SM -RA BKN100 BKN120 23/21 A2993 RMK AO2 LTG DSNT
 SW AND W TSB0254E09 SLP134 P0016 T02330211=
KDXR 180353Z AUTO 28005KT 4SM RA BR SCT048 BKN055 OVC085 22/21 A2997 RMK AO2
 LTG DSNT S-NW SLP144 T02220211 PNO $=
KGON 180356Z AUTO 24011G16KT 8SM SCT023 26/23 A2994 RMK AO2 LTG DSNT NW SLP136
 T02560233=
KHFD 180353Z 25007KT 5SM TSRA BR FEW018 BKN110 25/23 A2992 RMK AO2 LTG DSNT
 ALQDS TSB30E45B50 SLP132 P0018 T02500228=
KHVN 180353Z AUTO VRB03KT 10SM -RA BKN110 24/22 A2993 RMK AO2 RAB05 TSB18E33
 SLP135 P0005 T02440222=
KIJD 180352Z AUTO 22009KT 8SM VCTS -RA FEW014 SCT029 BKN080 25/24 A2995 RMK AO2
 LTG DSNT ALQDS RAB02 SLP138 P0000 T02500239=
KMMK 180353Z AUTO 25003KT 7SM -RA FEW075 BKN110 24/22 A2993 RMK AO2 LTG DSNT
 N-E RAB00 TSB32E47 SLP133 P0006 T02390217=
KOXC 180351Z AUTO 23003KT 9SM -RA FEW015 BKN090 OVC110 22/21 A2996 RMK AO2 LTG
 DSNT NE AND SW AND W TSE12B18E33 SLP153 P0013 T02170211=